Mount Hermon, Massachusetts
Current Conditions -  °F | °C
As of 7:52 PM on Tuesday 27 Jan 2015 (Local Time) from KORE Reporting Station
Overcast Overcast  
Wind Chill: -6°   Ceiling: 6500
Heat Index: 12°   Visibility: 9mi
Dew Point:   Wind: 20mph
Humidity: 67%   Direction: 350°N
Pressure: 29.67"   Gusts: 29mph
Location:  42.6787°N, 72.4874°W
Report Text: KORE 280052Z AUTO 35017G25KT 9SM BKN065 OVC080 M11/M16 A2967 RMK AO2 PK WND 35029/0015 UPE17B41E50SNB17E41 SLP058 P0000 T11111161 $
Loading
Personal Weather Stations






























Interactive Weather Map New forecast layout! Learn more

10-Day Weather Forecast

Advertisements
Track Severe Weather on mobile